sensor_id;sensor_type;location;lat;lon;timestamp;P1;durP1;ratioP1;P2;durP2;ratioP2
14294;SDS011;7231;59.370;18.016;2024-03-29T00:01:55;34.50;;;19.23;;
14294;SDS011;7231;59.370;18.016;2024-03-29T00:04:21;36.53;;;22.05;;
14294;SDS011;7231;59.370;18.016;2024-03-29T00:06:47;38.67;;;19.77;;
14294;SDS011;7231;59.370;18.016;2024-03-29T00:09:13;35.13;;;19.40;;
14294;SDS011;7231;59.370;18.016;2024-03-29T00:11:40;35.53;;;20.13;;
14294;SDS011;7231;59.370;18.016;2024-03-29T00:14:06;35.58;;;20.70;;
14294;SDS011;7231;59.370;18.016;2024-03-29T00:16:32;36.53;;;19.92;;
14294;SDS011;7231;59.370;18.016;2024-03-29T00:18:59;42.15;;;20.73;;
14294;SDS011;7231;59.370;18.016;2024-03-29T00:21:25;37.78;;;20.75;;
14294;SDS011;7231;59.370;18.016;2024-03-29T00:23:51;36.90;;;21.85;;
14294;SDS011;7231;59.370;18.016;2024-03-29T00:26:18;44.50;;;20.35;;
14294;SDS011;7231;59.370;18.016;2024-03-29T00:28:44;40.60;;;21.25;;
14294;SDS011;7231;59.370;18.016;2024-03-29T00:31:10;38.38;;;22.00;;
14294;SDS011;7231;59.370;18.016;2024-03-29T00:33:36;33.05;;;20.95;;
14294;SDS011;7231;59.370;18.016;2024-03-29T00:36:04;35.47;;;20.25;;
14294;SDS011;7231;59.370;18.016;2024-03-29T00:38:30;41.70;;;20.48;;
14294;SDS011;7231;59.370;18.016;2024-03-29T00:40:56;34.45;;;20.70;;
14294;SDS011;7231;59.370;18.016;2024-03-29T00:43:22;41.35;;;20.15;;
14294;SDS011;7231;59.370;18.016;2024-03-29T00:45:48;34.67;;;20.00;;
14294;SDS011;7231;59.370;18.016;2024-03-29T00:48:14;36.08;;;21.48;;
14294;SDS011;7231;59.370;18.016;2024-03-29T00:50:41;49.10;;;21.92;;
14294;SDS011;7231;59.370;18.016;2024-03-29T00:53:08;44.00;;;22.05;;
14294;SDS011;7231;59.370;18.016;2024-03-29T00:55:34;47.28;;;22.63;;
14294;SDS011;7231;59.370;18.016;2024-03-29T00:58:00;40.70;;;23.10;;
14294;SDS011;7231;59.370;18.016;2024-03-29T01:00:27;49.75;;;25.60;;
14294;SDS011;7231;59.370;18.016;2024-03-29T01:02:53;58.45;;;25.65;;
14294;SDS011;7231;59.370;18.016;2024-03-29T01:05:19;57.15;;;26.00;;
14294;SDS011;7231;59.370;18.016;2024-03-29T01:07:45;52.70;;;24.60;;
14294;SDS011;7231;59.370;18.016;2024-03-29T01:10:12;59.72;;;26.65;;
14294;SDS011;7231;59.370;18.016;2024-03-29T01:12:39;56.70;;;27.45;;
14294;SDS011;7231;59.370;18.016;2024-03-29T01:15:05;56.15;;;27.30;;
14294;SDS011;7231;59.370;18.016;2024-03-29T01:17:31;52.78;;;25.75;;
14294;SDS011;7231;59.370;18.016;2024-03-29T01:19:58;54.88;;;25.88;;
14294;SDS011;7231;59.370;18.016;2024-03-29T01:22:24;56.05;;;27.20;;
14294;SDS011;7231;59.370;18.016;2024-03-29T01:24:50;61.78;;;26.42;;
14294;SDS011;7231;59.370;18.016;2024-03-29T01:27:17;61.00;;;27.60;;
14294;SDS011;7231;59.370;18.016;2024-03-29T01:29:43;53.85;;;27.20;;
14294;SDS011;7231;59.370;18.016;2024-03-29T01:32:10;59.00;;;27.27;;
14294;SDS011;7231;59.370;18.016;2024-03-29T01:34:36;61.30;;;26.15;;
14294;SDS011;7231;59.370;18.016;2024-03-29T01:37:02;59.33;;;27.02;;
14294;SDS011;7231;59.370;18.016;2024-03-29T01:39:29;60.33;;;26.95;;
14294;SDS011;7231;59.370;18.016;2024-03-29T01:41:55;55.78;;;25.50;;
14294;SDS011;7231;59.370;18.016;2024-03-29T01:44:23;57.55;;;27.50;;
14294;SDS011;7231;59.370;18.016;2024-03-29T01:46:50;65.28;;;27.52;;
14294;SDS011;7231;59.370;18.016;2024-03-29T01:49:17;53.72;;;27.23;;
14294;SDS011;7231;59.370;18.016;2024-03-29T01:51:44;57.17;;;28.02;;
14294;SDS011;7231;59.370;18.016;2024-03-29T01:54:12;62.67;;;27.00;;
14294;SDS011;7231;59.370;18.016;2024-03-29T01:56:39;64.78;;;28.42;;
14294;SDS011;7231;59.370;18.016;2024-03-29T01:59:08;67.40;;;29.70;;
14294;SDS011;7231;59.370;18.016;2024-03-29T02:01:42;63.95;;;28.60;;
14294;SDS011;7231;59.370;18.016;2024-03-29T02:04:09;59.95;;;28.80;;
14294;SDS011;7231;59.370;18.016;2024-03-29T02:06:36;59.75;;;28.35;;
14294;SDS011;7231;59.370;18.016;2024-03-29T02:09:04;52.70;;;26.95;;
14294;SDS011;7231;59.370;18.016;2024-03-29T02:11:31;57.45;;;28.92;;
14294;SDS011;7231;59.370;18.016;2024-03-29T02:13:59;60.72;;;27.95;;
14294;SDS011;7231;59.370;18.016;2024-03-29T02:16:26;58.97;;;28.52;;
14294;SDS011;7231;59.370;18.016;2024-03-29T02:18:55;62.33;;;29.20;;
14294;SDS011;7231;59.370;18.016;2024-03-29T02:21:22;56.25;;;29.52;;
14294;SDS011;7231;59.370;18.016;2024-03-29T02:23:56;54.45;;;27.73;;
14294;SDS011;7231;59.370;18.016;2024-03-29T02:26:27;62.20;;;28.33;;
14294;SDS011;7231;59.370;18.016;2024-03-29T02:28:58;61.15;;;28.75;;
14294;SDS011;7231;59.370;18.016;2024-03-29T02:31:25;51.88;;;27.80;;
14294;SDS011;7231;59.370;18.016;2024-03-29T02:33:52;53.75;;;26.55;;
14294;SDS011;7231;59.370;18.016;2024-03-29T02:36:19;52.65;;;26.02;;
14294;SDS011;7231;59.370;18.016;2024-03-29T02:38:46;50.95;;;25.48;;
14294;SDS011;7231;59.370;18.016;2024-03-29T02:41:15;50.03;;;24.35;;
14294;SDS011;7231;59.370;18.016;2024-03-29T02:43:42;54.00;;;25.67;;
14294;SDS011;7231;59.370;18.016;2024-03-29T02:46:09;53.33;;;26.33;;
14294;SDS011;7231;59.370;18.016;2024-03-29T02:48:36;51.92;;;25.80;;
14294;SDS011;7231;59.370;18.016;2024-03-29T02:51:02;50.80;;;25.65;;
14294;SDS011;7231;59.370;18.016;2024-03-29T02:53:30;55.42;;;26.38;;
14294;SDS011;7231;59.370;18.016;2024-03-29T02:55:56;52.45;;;25.98;;
14294;SDS011;7231;59.370;18.016;2024-03-29T02:58:24;49.05;;;24.38;;
14294;SDS011;7231;59.370;18.016;2024-03-29T03:00:50;48.92;;;22.85;;
14294;SDS011;7231;59.370;18.016;2024-03-29T03:03:17;48.45;;;24.17;;
14294;SDS011;7231;59.370;18.016;2024-03-29T03:05:44;51.17;;;24.45;;
14294;SDS011;7231;59.370;18.016;2024-03-29T03:08:11;44.25;;;22.73;;
14294;SDS011;7231;59.370;18.016;2024-03-29T03:10:55;43.42;;;22.63;;
14294;SDS011;7231;59.370;18.016;2024-03-29T03:13:26;45.75;;;22.73;;
14294;SDS011;7231;59.370;18.016;2024-03-29T03:15:54;44.63;;;22.17;;
14294;SDS011;7231;59.370;18.016;2024-03-29T03:18:22;50.15;;;23.05;;
14294;SDS011;7231;59.370;18.016;2024-03-29T03:20:50;48.55;;;22.00;;
14294;SDS011;7231;59.370;18.016;2024-03-29T03:23:17;47.15;;;22.08;;
14294;SDS011;7231;59.370;18.016;2024-03-29T03:25:45;45.47;;;21.23;;
14294;SDS011;7231;59.370;18.016;2024-03-29T03:28:13;43.80;;;21.63;;
14294;SDS011;7231;59.370;18.016;2024-03-29T03:30:41;45.38;;;21.98;;
14294;SDS011;7231;59.370;18.016;2024-03-29T03:33:07;40.17;;;19.90;;
14294;SDS011;7231;59.370;18.016;2024-03-29T03:35:34;47.70;;;22.65;;
14294;SDS011;7231;59.370;18.016;2024-03-29T03:38:00;44.67;;;19.83;;
14294;SDS011;7231;59.370;18.016;2024-03-29T03:40:27;38.97;;;19.40;;
14294;SDS011;7231;59.370;18.016;2024-03-29T03:42:53;42.53;;;19.50;;
14294;SDS011;7231;59.370;18.016;2024-03-29T03:45:21;41.10;;;20.17;;
14294;SDS011;7231;59.370;18.016;2024-03-29T03:47:49;44.40;;;21.88;;
14294;SDS011;7231;59.370;18.016;2024-03-29T03:50:16;43.85;;;21.80;;
14294;SDS011;7231;59.370;18.016;2024-03-29T03:52:42;50.88;;;23.85;;
14294;SDS011;7231;59.370;18.016;2024-03-29T03:55:09;48.03;;;23.70;;
14294;SDS011;7231;59.370;18.016;2024-03-29T03:57:35;46.58;;;23.02;;
14294;SDS011;7231;59.370;18.016;2024-03-29T04:00:03;52.55;;;22.75;;
14294;SDS011;7231;59.370;18.016;2024-03-29T04:02:31;44.58;;;20.33;;
14294;SDS011;7231;59.370;18.016;2024-03-29T04:04:59;53.30;;;22.17;;
14294;SDS011;7231;59.370;18.016;2024-03-29T04:07:25;41.55;;;20.30;;
14294;SDS011;7231;59.370;18.016;2024-03-29T04:09:52;44.90;;;23.02;;
14294;SDS011;7231;59.370;18.016;2024-03-29T04:12:18;50.35;;;25.27;;
14294;SDS011;7231;59.370;18.016;2024-03-29T04:14:47;50.83;;;24.33;;
14294;SDS011;7231;59.370;18.016;2024-03-29T04:17:14;45.13;;;22.63;;
14294;SDS011;7231;59.370;18.016;2024-03-29T04:19:42;47.97;;;23.50;;
14294;SDS011;7231;59.370;18.016;2024-03-29T04:22:10;47.92;;;24.02;;
14294;SDS011;7231;59.370;18.016;2024-03-29T04:24:36;47.10;;;24.58;;
14294;SDS011;7231;59.370;18.016;2024-03-29T04:27:03;44.88;;;24.10;;
14294;SDS011;7231;59.370;18.016;2024-03-29T04:29:30;44.17;;;23.05;;
14294;SDS011;7231;59.370;18.016;2024-03-29T04:31:57;47.63;;;24.20;;
14294;SDS011;7231;59.370;18.016;2024-03-29T04:34:23;44.40;;;24.02;;
14294;SDS011;7231;59.370;18.016;2024-03-29T04:36:50;35.15;;;17.92;;
14294;SDS011;7231;59.370;18.016;2024-03-29T04:39:19;46.08;;;24.33;;
14294;SDS011;7231;59.370;18.016;2024-03-29T04:41:46;36.50;;;18.33;;
14294;SDS011;7231;59.370;18.016;2024-03-29T04:44:13;46.95;;;22.08;;
14294;SDS011;7231;59.370;18.016;2024-03-29T04:46:49;51.55;;;25.17;;
14294;SDS011;7231;59.370;18.016;2024-03-29T04:49:18;49.33;;;23.20;;
14294;SDS011;7231;59.370;18.016;2024-03-29T04:51:51;55.85;;;27.05;;
14294;SDS011;7231;59.370;18.016;2024-03-29T04:54:19;55.90;;;26.35;;
14294;SDS011;7231;59.370;18.016;2024-03-29T04:56:46;51.53;;;25.45;;
14294;SDS011;7231;59.370;18.016;2024-03-29T04:59:13;53.03;;;25.98;;
14294;SDS011;7231;59.370;18.016;2024-03-29T05:01:42;58.50;;;26.90;;
14294;SDS011;7231;59.370;18.016;2024-03-29T05:04:12;46.75;;;24.58;;
14294;SDS011;7231;59.370;18.016;2024-03-29T05:06:42;53.50;;;26.48;;
14294;SDS011;7231;59.370;18.016;2024-03-29T05:09:09;52.65;;;25.20;;
14294;SDS011;7231;59.370;18.016;2024-03-29T05:11:39;49.72;;;25.70;;
14294;SDS011;7231;59.370;18.016;2024-03-29T05:14:06;55.38;;;26.70;;
14294;SDS011;7231;59.370;18.016;2024-03-29T05:16:33;50.42;;;24.75;;
14294;SDS011;7231;59.370;18.016;2024-03-29T05:19:00;46.50;;;24.35;;
14294;SDS011;7231;59.370;18.016;2024-03-29T05:21:27;58.20;;;25.92;;
14294;SDS011;7231;59.370;18.016;2024-03-29T05:23:54;54.90;;;27.25;;
14294;SDS011;7231;59.370;18.016;2024-03-29T05:26:21;54.55;;;26.67;;
14294;SDS011;7231;59.370;18.016;2024-03-29T05:28:49;61.58;;;28.08;;
14294;SDS011;7231;59.370;18.016;2024-03-29T05:31:18;46.40;;;20.90;;
14294;SDS011;7231;59.370;18.016;2024-03-29T05:33:46;53.60;;;26.52;;
14294;SDS011;7231;59.370;18.016;2024-03-29T05:36:13;49.65;;;23.75;;
14294;SDS011;7231;59.370;18.016;2024-03-29T05:38:40;51.95;;;25.67;;
14294;SDS011;7231;59.370;18.016;2024-03-29T05:41:07;51.40;;;25.25;;
14294;SDS011;7231;59.370;18.016;2024-03-29T05:43:34;35.28;;;18.30;;
14294;SDS011;7231;59.370;18.016;2024-03-29T05:46:03;53.13;;;26.48;;
14294;SDS011;7231;59.370;18.016;2024-03-29T05:48:30;38.72;;;21.70;;
14294;SDS011;7231;59.370;18.016;2024-03-29T05:50:57;47.83;;;25.13;;
14294;SDS011;7231;59.370;18.016;2024-03-29T05:53:24;39.38;;;19.73;;
14294;SDS011;7231;59.370;18.016;2024-03-29T05:55:51;48.60;;;25.38;;
14294;SDS011;7231;59.370;18.016;2024-03-29T05:58:19;51.00;;;25.67;;
14294;SDS011;7231;59.370;18.016;2024-03-29T06:00:46;50.10;;;25.38;;
14294;SDS011;7231;59.370;18.016;2024-03-29T06:03:15;44.88;;;22.23;;
14294;SDS011;7231;59.370;18.016;2024-03-29T06:05:42;45.28;;;23.67;;
14294;SDS011;7231;59.370;18.016;2024-03-29T06:08:10;45.60;;;24.52;;
14294;SDS011;7231;59.370;18.016;2024-03-29T06:10:37;43.35;;;24.42;;
14294;SDS011;7231;59.370;18.016;2024-03-29T06:13:04;50.30;;;23.73;;
14294;SDS011;7231;59.370;18.016;2024-03-29T06:15:35;48.42;;;24.77;;
14294;SDS011;7231;59.370;18.016;2024-03-29T06:18:21;40.95;;;21.58;;
14294;SDS011;7231;59.370;18.016;2024-03-29T06:20:49;46.80;;;24.02;;
14294;SDS011;7231;59.370;18.016;2024-03-29T06:23:16;47.88;;;23.80;;
14294;SDS011;7231;59.370;18.016;2024-03-29T06:25:44;45.28;;;23.77;;
14294;SDS011;7231;59.370;18.016;2024-03-29T06:28:11;40.72;;;21.33;;
14294;SDS011;7231;59.370;18.016;2024-03-29T06:30:38;43.95;;;21.75;;
14294;SDS011;7231;59.370;18.016;2024-03-29T06:33:06;34.83;;;17.83;;
14294;SDS011;7231;59.370;18.016;2024-03-29T06:35:35;41.92;;;21.92;;
14294;SDS011;7231;59.370;18.016;2024-03-29T06:38:02;41.75;;;21.27;;
14294;SDS011;7231;59.370;18.016;2024-03-29T06:40:29;34.88;;;20.58;;
14294;SDS011;7231;59.370;18.016;2024-03-29T06:42:56;29.95;;;15.40;;
14294;SDS011;7231;59.370;18.016;2024-03-29T06:45:25;30.63;;;18.80;;
14294;SDS011;7231;59.370;18.016;2024-03-29T06:47:52;35.25;;;19.63;;
14294;SDS011;7231;59.370;18.016;2024-03-29T06:50:19;33.67;;;20.25;;
14294;SDS011;7231;59.370;18.016;2024-03-29T06:52:47;29.73;;;18.92;;
14294;SDS011;7231;59.370;18.016;2024-03-29T06:55:15;28.90;;;17.83;;
14294;SDS011;7231;59.370;18.016;2024-03-29T06:57:42;27.73;;;17.30;;
14294;SDS011;7231;59.370;18.016;2024-03-29T07:00:10;30.23;;;17.60;;
14294;SDS011;7231;59.370;18.016;2024-03-29T07:02:38;29.85;;;18.92;;
14294;SDS011;7231;59.370;18.016;2024-03-29T07:05:05;28.95;;;18.58;;
14294;SDS011;7231;59.370;18.016;2024-03-29T07:07:33;28.48;;;18.33;;
14294;SDS011;7231;59.370;18.016;2024-03-29T07:10:01;29.80;;;17.42;;
14294;SDS011;7231;59.370;18.016;2024-03-29T07:12:28;25.70;;;17.02;;
14294;SDS011;7231;59.370;18.016;2024-03-29T07:14:55;27.48;;;17.70;;
14294;SDS011;7231;59.370;18.016;2024-03-29T07:17:22;25.55;;;16.40;;
14294;SDS011;7231;59.370;18.016;2024-03-29T07:19:50;28.25;;;16.90;;
14294;SDS011;7231;59.370;18.016;2024-03-29T07:22:17;26.17;;;16.20;;
14294;SDS011;7231;59.370;18.016;2024-03-29T07:24:45;19.33;;;13.73;;
14294;SDS011;7231;59.370;18.016;2024-03-29T07:27:13;18.95;;;13.90;;
14294;SDS011;7231;59.370;18.016;2024-03-29T07:29:43;23.65;;;14.68;;
14294;SDS011;7231;59.370;18.016;2024-03-29T07:32:11;17.70;;;12.07;;
14294;SDS011;7231;59.370;18.016;2024-03-29T07:34:38;19.63;;;14.07;;
14294;SDS011;7231;59.370;18.016;2024-03-29T07:37:05;15.20;;;10.38;;
14294;SDS011;7231;59.370;18.016;2024-03-29T07:39:35;19.30;;;13.05;;
14294;SDS011;7231;59.370;18.016;2024-03-29T07:42:02;17.88;;;12.23;;
14294;SDS011;7231;59.370;18.016;2024-03-29T07:44:31;15.20;;;11.13;;
14294;SDS011;7231;59.370;18.016;2024-03-29T07:46:58;15.82;;;11.13;;
14294;SDS011;7231;59.370;18.016;2024-03-29T07:49:25;13.65;;;10.27;;
14294;SDS011;7231;59.370;18.016;2024-03-29T07:51:53;12.52;;;9.65;;
14294;SDS011;7231;59.370;18.016;2024-03-29T07:54:20;14.85;;;9.82;;
14294;SDS011;7231;59.370;18.016;2024-03-29T07:56:47;14.35;;;9.25;;
14294;SDS011;7231;59.370;18.016;2024-03-29T07:59:16;12.95;;;8.98;;
14294;SDS011;7231;59.370;18.016;2024-03-29T08:01:46;9.52;;;8.23;;
14294;SDS011;7231;59.370;18.016;2024-03-29T08:04:13;13.95;;;9.38;;
14294;SDS011;7231;59.370;18.016;2024-03-29T08:06:40;14.68;;;7.55;;
14294;SDS011;7231;59.370;18.016;2024-03-29T08:09:08;10.90;;;8.63;;
14294;SDS011;7231;59.370;18.016;2024-03-29T08:11:35;12.27;;;8.48;;
14294;SDS011;7231;59.370;18.016;2024-03-29T08:14:02;12.38;;;9.35;;
14294;SDS011;7231;59.370;18.016;2024-03-29T08:16:29;10.48;;;8.38;;
14294;SDS011;7231;59.370;18.016;2024-03-29T08:18:58;12.98;;;9.50;;
14294;SDS011;7231;59.370;18.016;2024-03-29T08:21:25;11.88;;;9.15;;
14294;SDS011;7231;59.370;18.016;2024-03-29T08:23:53;9.65;;;8.10;;
14294;SDS011;7231;59.370;18.016;2024-03-29T08:26:20;9.45;;;7.80;;
14294;SDS011;7231;59.370;18.016;2024-03-29T08:28:47;8.70;;;7.20;;
14294;SDS011;7231;59.370;18.016;2024-03-29T08:31:15;9.88;;;7.78;;
14294;SDS011;7231;59.370;18.016;2024-03-29T08:33:42;9.73;;;6.15;;
14294;SDS011;7231;59.370;18.016;2024-03-29T08:36:11;8.57;;;7.00;;
14294;SDS011;7231;59.370;18.016;2024-03-29T08:38:38;9.48;;;6.53;;
14294;SDS011;7231;59.370;18.016;2024-03-29T08:41:08;10.93;;;6.68;;
14294;SDS011;7231;59.370;18.016;2024-03-29T08:43:35;8.50;;;6.32;;
14294;SDS011;7231;59.370;18.016;2024-03-29T08:46:02;11.10;;;6.50;;
14294;SDS011;7231;59.370;18.016;2024-03-29T08:48:29;8.07;;;6.07;;
14294;SDS011;7231;59.370;18.016;2024-03-29T08:50:57;10.18;;;6.43;;
14294;SDS011;7231;59.370;18.016;2024-03-29T08:53:25;10.30;;;6.50;;
14294;SDS011;7231;59.370;18.016;2024-03-29T08:55:53;8.93;;;6.35;;
14294;SDS011;7231;59.370;18.016;2024-03-29T08:58:20;11.32;;;6.10;;
14294;SDS011;7231;59.370;18.016;2024-03-29T09:00:53;7.72;;;5.40;;
14294;SDS011;7231;59.370;18.016;2024-03-29T09:03:21;8.05;;;5.50;;
14294;SDS011;7231;59.370;18.016;2024-03-29T09:05:49;9.43;;;6.90;;
14294;SDS011;7231;59.370;18.016;2024-03-29T09:08:16;11.30;;;5.20;;
14294;SDS011;7231;59.370;18.016;2024-03-29T09:10:45;7.70;;;5.72;;
14294;SDS011;7231;59.370;18.016;2024-03-29T09:13:12;9.35;;;5.65;;
14294;SDS011;7231;59.370;18.016;2024-03-29T09:15:40;8.43;;;4.95;;
14294;SDS011;7231;59.370;18.016;2024-03-29T09:18:07;8.52;;;5.43;;
14294;SDS011;7231;59.370;18.016;2024-03-29T09:20:43;6.57;;;5.65;;
14294;SDS011;7231;59.370;18.016;2024-03-29T09:23:10;9.40;;;6.00;;
14294;SDS011;7231;59.370;18.016;2024-03-29T09:25:42;9.95;;;6.03;;
14294;SDS011;7231;59.370;18.016;2024-03-29T09:28:11;8.63;;;5.07;;
14294;SDS011;7231;59.370;18.016;2024-03-29T09:30:38;6.32;;;5.43;;
14294;SDS011;7231;59.370;18.016;2024-03-29T09:33:05;7.30;;;5.10;;
14294;SDS011;7231;59.370;18.016;2024-03-29T09:35:34;6.28;;;5.07;;
14294;SDS011;7231;59.370;18.016;2024-03-29T09:38:03;12.25;;;5.20;;
14294;SDS011;7231;59.370;18.016;2024-03-29T09:43:34;5.78;;;4.95;;
14294;SDS011;7231;59.370;18.016;2024-03-29T09:46:22;6.65;;;4.30;;
14294;SDS011;7231;59.370;18.016;2024-03-29T09:49:05;6.18;;;4.47;;
14294;SDS011;7231;59.370;18.016;2024-03-29T09:51:43;6.13;;;4.65;;
14294;SDS011;7231;59.370;18.016;2024-03-29T09:54:19;5.85;;;4.18;;
14294;SDS011;7231;59.370;18.016;2024-03-29T09:57:24;5.07;;;3.67;;
14294;SDS011;7231;59.370;18.016;2024-03-29T10:00:01;7.15;;;4.80;;
14294;SDS011;7231;59.370;18.016;2024-03-29T10:02:39;6.05;;;3.72;;
14294;SDS011;7231;59.370;18.016;2024-03-29T10:05:18;6.72;;;4.70;;
14294;SDS011;7231;59.370;18.016;2024-03-29T10:08:18;6.13;;;5.03;;
14294;SDS011;7231;59.370;18.016;2024-03-29T10:13:50;5.68;;;4.25;;
14294;SDS011;7231;59.370;18.016;2024-03-29T10:16:38;6.60;;;4.35;;
14294;SDS011;7231;59.370;18.016;2024-03-29T10:19:20;6.90;;;4.85;;
14294;SDS011;7231;59.370;18.016;2024-03-29T10:22:16;6.75;;;5.05;;
14294;SDS011;7231;59.370;18.016;2024-03-29T10:27:41;6.03;;;4.95;;
14294;SDS011;7231;59.370;18.016;2024-03-29T10:30:33;6.25;;;4.53;;
14294;SDS011;7231;59.370;18.016;2024-03-29T10:33:22;8.52;;;4.97;;
14294;SDS011;7231;59.370;18.016;2024-03-29T10:36:10;6.97;;;4.60;;
14294;SDS011;7231;59.370;18.016;2024-03-29T10:38:48;9.02;;;5.13;;
14294;SDS011;7231;59.370;18.016;2024-03-29T10:41:19;7.25;;;3.67;;
14294;SDS011;7231;59.370;18.016;2024-03-29T10:43:56;7.53;;;5.28;;
14294;SDS011;7231;59.370;18.016;2024-03-29T10:49:33;8.55;;;5.38;;
14294;SDS011;7231;59.370;18.016;2024-03-29T10:52:04;7.50;;;5.15;;
14294;SDS011;7231;59.370;18.016;2024-03-29T10:54:47;6.65;;;4.65;;
14294;SDS011;7231;59.370;18.016;2024-03-29T10:57:21;5.60;;;3.78;;
14294;SDS011;7231;59.370;18.016;2024-03-29T11:00:07;5.97;;;4.05;;
14294;SDS011;7231;59.370;18.016;2024-03-29T11:02:48;7.93;;;5.00;;
14294;SDS011;7231;59.370;18.016;2024-03-29T11:05:22;6.40;;;5.20;;
14294;SDS011;7231;59.370;18.016;2024-03-29T11:07:58;7.15;;;4.40;;
14294;SDS011;7231;59.370;18.016;2024-03-29T11:10:29;7.43;;;5.07;;
14294;SDS011;7231;59.370;18.016;2024-03-29T11:13:09;6.95;;;5.68;;
14294;SDS011;7231;59.370;18.016;2024-03-29T11:15:45;6.57;;;5.10;;
14294;SDS011;7231;59.370;18.016;2024-03-29T11:18:18;7.90;;;4.93;;
14294;SDS011;7231;59.370;18.016;2024-03-29T11:20:56;6.35;;;5.03;;
14294;SDS011;7231;59.370;18.016;2024-03-29T11:23:27;7.78;;;5.25;;
14294;SDS011;7231;59.370;18.016;2024-03-29T11:26:05;6.15;;;4.45;;
14294;SDS011;7231;59.370;18.016;2024-03-29T11:28:49;6.93;;;4.63;;
14294;SDS011;7231;59.370;18.016;2024-03-29T11:31:42;6.40;;;4.43;;
14294;SDS011;7231;59.370;18.016;2024-03-29T11:34:18;7.10;;;4.70;;
14294;SDS011;7231;59.370;18.016;2024-03-29T11:37:15;4.95;;;3.97;;
14294;SDS011;7231;59.370;18.016;2024-03-29T11:40:00;4.90;;;3.70;;
14294;SDS011;7231;59.370;18.016;2024-03-29T11:42:46;7.78;;;3.92;;
14294;SDS011;7231;59.370;18.016;2024-03-29T11:45:38;3.80;;;3.30;;
14294;SDS011;7231;59.370;18.016;2024-03-29T11:48:08;5.00;;;3.40;;
14294;SDS011;7231;59.370;18.016;2024-03-29T11:50:46;5.38;;;3.40;;
14294;SDS011;7231;59.370;18.016;2024-03-29T11:53:20;4.43;;;3.50;;
14294;SDS011;7231;59.370;18.016;2024-03-29T11:55:53;5.75;;;2.90;;
14294;SDS011;7231;59.370;18.016;2024-03-29T11:58:25;4.75;;;2.85;;
14294;SDS011;7231;59.370;18.016;2024-03-29T12:00:55;5.97;;;2.53;;
14294;SDS011;7231;59.370;18.016;2024-03-29T12:03:24;5.35;;;3.08;;
14294;SDS011;7231;59.370;18.016;2024-03-29T12:05:53;2.63;;;2.08;;
14294;SDS011;7231;59.370;18.016;2024-03-29T12:08:29;2.95;;;2.20;;
14294;SDS011;7231;59.370;18.016;2024-03-29T12:10:57;4.75;;;2.70;;
14294;SDS011;7231;59.370;18.016;2024-03-29T12:13:25;6.72;;;2.47;;
14294;SDS011;7231;59.370;18.016;2024-03-29T12:15:56;4.20;;;2.28;;
14294;SDS011;7231;59.370;18.016;2024-03-29T12:18:34;3.33;;;2.30;;
14294;SDS011;7231;59.370;18.016;2024-03-29T12:21:02;2.63;;;1.90;;
14294;SDS011;7231;59.370;18.016;2024-03-29T12:23:31;3.40;;;1.52;;
14294;SDS011;7231;59.370;18.016;2024-03-29T12:26:11;3.15;;;1.80;;
14294;SDS011;7231;59.370;18.016;2024-03-29T12:28:40;3.58;;;1.75;;
14294;SDS011;7231;59.370;18.016;2024-03-29T12:31:13;5.25;;;1.80;;
14294;SDS011;7231;59.370;18.016;2024-03-29T12:33:50;5.43;;;1.85;;
14294;SDS011;7231;59.370;18.016;2024-03-29T12:36:18;2.00;;;1.50;;
14294;SDS011;7231;59.370;18.016;2024-03-29T12:38:50;1.83;;;1.33;;
14294;SDS011;7231;59.370;18.016;2024-03-29T12:41:21;5.57;;;1.30;;
14294;SDS011;7231;59.370;18.016;2024-03-29T12:43:50;3.22;;;1.50;;
14294;SDS011;7231;59.370;18.016;2024-03-29T12:46:17;4.25;;;1.60;;
14294;SDS011;7231;59.370;18.016;2024-03-29T12:48:44;4.93;;;1.50;;
14294;SDS011;7231;59.370;18.016;2024-03-29T12:51:12;2.97;;;1.38;;
14294;SDS011;7231;59.370;18.016;2024-03-29T12:53:39;3.03;;;1.40;;
14294;SDS011;7231;59.370;18.016;2024-03-29T12:56:09;3.35;;;1.50;;
14294;SDS011;7231;59.370;18.016;2024-03-29T12:58:36;2.33;;;1.60;;
14294;SDS011;7231;59.370;18.016;2024-03-29T13:01:03;2.63;;;1.58;;
14294;SDS011;7231;59.370;18.016;2024-03-29T13:03:32;2.25;;;1.55;;
14294;SDS011;7231;59.370;18.016;2024-03-29T13:05:59;3.38;;;1.85;;
14294;SDS011;7231;59.370;18.016;2024-03-29T13:08:26;2.75;;;1.55;;
14294;SDS011;7231;59.370;18.016;2024-03-29T13:10:54;1.83;;;1.00;;
14294;SDS011;7231;59.370;18.016;2024-03-29T13:13:24;1.77;;;1.35;;
14294;SDS011;7231;59.370;18.016;2024-03-29T13:15:51;2.85;;;1.27;;
14294;SDS011;7231;59.370;18.016;2024-03-29T13:18:18;2.53;;;1.10;;
14294;SDS011;7231;59.370;18.016;2024-03-29T13:20:45;1.88;;;1.40;;
14294;SDS011;7231;59.370;18.016;2024-03-29T13:23:12;3.17;;;0.77;;
14294;SDS011;7231;59.370;18.016;2024-03-29T13:25:39;3.55;;;1.00;;
14294;SDS011;7231;59.370;18.016;2024-03-29T13:28:06;3.28;;;1.60;;
14294;SDS011;7231;59.370;18.016;2024-03-29T13:30:37;2.75;;;1.10;;
14294;SDS011;7231;59.370;18.016;2024-03-29T13:33:08;3.80;;;1.17;;
14294;SDS011;7231;59.370;18.016;2024-03-29T13:35:36;2.22;;;1.00;;
14294;SDS011;7231;59.370;18.016;2024-03-29T13:38:04;2.33;;;1.02;;
14294;SDS011;7231;59.370;18.016;2024-03-29T13:40:31;4.07;;;1.05;;
14294;SDS011;7231;59.370;18.016;2024-03-29T13:42:59;1.58;;;1.23;;
14294;SDS011;7231;59.370;18.016;2024-03-29T13:45:26;2.42;;;0.95;;
14294;SDS011;7231;59.370;18.016;2024-03-29T13:47:54;2.85;;;1.08;;
14294;SDS011;7231;59.370;18.016;2024-03-29T13:50:22;2.78;;;1.10;;
14294;SDS011;7231;59.370;18.016;2024-03-29T13:52:48;2.10;;;0.93;;
14294;SDS011;7231;59.370;18.016;2024-03-29T13:55:17;3.70;;;0.88;;
14294;SDS011;7231;59.370;18.016;2024-03-29T13:57:44;1.90;;;0.88;;
14294;SDS011;7231;59.370;18.016;2024-03-29T14:00:11;1.52;;;0.90;;
14294;SDS011;7231;59.370;18.016;2024-03-29T14:02:42;3.72;;;0.90;;
14294;SDS011;7231;59.370;18.016;2024-03-29T14:05:11;1.30;;;0.70;;
14294;SDS011;7231;59.370;18.016;2024-03-29T14:07:39;3.45;;;0.90;;
14294;SDS011;7231;59.370;18.016;2024-03-29T14:10:06;3.08;;;0.93;;
14294;SDS011;7231;59.370;18.016;2024-03-29T14:12:34;1.25;;;0.95;;
14294;SDS011;7231;59.370;18.016;2024-03-29T14:15:02;2.25;;;0.80;;
14294;SDS011;7231;59.370;18.016;2024-03-29T14:17:31;2.05;;;0.80;;
14294;SDS011;7231;59.370;18.016;2024-03-29T14:19:58;2.40;;;0.90;;
14294;SDS011;7231;59.370;18.016;2024-03-29T14:22:27;4.03;;;0.82;;
14294;SDS011;7231;59.370;18.016;2024-03-29T14:24:57;2.38;;;0.80;;
14294;SDS011;7231;59.370;18.016;2024-03-29T14:27:24;3.47;;;1.00;;
14294;SDS011;7231;59.370;18.016;2024-03-29T14:29:52;6.57;;;1.17;;
14294;SDS011;7231;59.370;18.016;2024-03-29T14:32:20;3.63;;;1.00;;
14294;SDS011;7231;59.370;18.016;2024-03-29T14:34:48;2.58;;;0.80;;
14294;SDS011;7231;59.370;18.016;2024-03-29T14:37:15;3.75;;;1.15;;
14294;SDS011;7231;59.370;18.016;2024-03-29T14:39:44;3.20;;;0.80;;
14294;SDS011;7231;59.370;18.016;2024-03-29T14:42:13;3.05;;;1.23;;
14294;SDS011;7231;59.370;18.016;2024-03-29T14:44:47;3.55;;;0.90;;
14294;SDS011;7231;59.370;18.016;2024-03-29T14:47:17;2.75;;;1.13;;
14294;SDS011;7231;59.370;18.016;2024-03-29T14:49:44;3.65;;;1.42;;
14294;SDS011;7231;59.370;18.016;2024-03-29T14:52:11;3.47;;;1.02;;
14294;SDS011;7231;59.370;18.016;2024-03-29T14:54:38;3.33;;;1.00;;
14294;SDS011;7231;59.370;18.016;2024-03-29T14:57:07;4.30;;;0.82;;
14294;SDS011;7231;59.370;18.016;2024-03-29T14:59:34;4.20;;;0.93;;